Time;durP1;ratioP1;P1;durP2;ratioP2;P2;SDS_P1;SDS_P2;PMS_P1;PMS_P2;Temp;Humidity;BMP_temperature;BMP_pressure;BME280_temperature;BME280_humidity;BME280_pressure;Samples;Min_cycle;Max_cycle;Signal;HPM_P1;HPM_P2
2022/01/05 00:01:30;;;;;;;9.88;2.05;;;;;;;5.53;73.97;100055.84;5034364;28;20029;-65
2022/01/05 00:03:56;;;;;;;8.38;2.40;;;;;;;5.42;73.67;100060.00;5034480;28;20022;-65
2022/01/05 00:06:22;;;;;;;6.40;2.20;;;;;;;5.34;73.45;100065.09;5034364;28;20049;-65
2022/01/05 00:08:47;;;;;;;9.43;2.38;;;;;;;5.31;73.35;100070.28;5034271;28;20522;-66
2022/01/05 00:11:13;;;;;;;10.23;2.30;;;;;;;5.23;72.16;100072.75;5034079;28;20025;-64
2022/01/05 00:13:38;;;;;;;15.10;2.58;;;;;;;5.17;73.36;100063.88;5034353;28;20032;-65
2022/01/05 00:16:04;;;;;;;7.95;2.10;;;;;;;5.16;73.81;100075.22;5034188;28;20410;-64
2022/01/05 00:18:31;;;;;;;8.88;2.25;;;;;;;5.18;74.57;100068.25;5034173;28;20100;-65
2022/01/05 00:20:57;;;;;;;10.95;2.10;;;;;;;5.15;73.05;100068.22;5034036;28;20057;-65
2022/01/05 00:23:23;;;;;;;8.63;1.92;;;;;;;5.20;73.79;100070.06;5034005;28;20030;-65
2022/01/05 00:25:48;;;;;;;8.95;2.28;;;;;;;5.20;72.28;100067.44;5033903;28;20430;-65
2022/01/05 00:28:13;;;;;;;9.25;2.33;;;;;;;5.15;71.34;100065.59;5033884;28;20033;-65
2022/01/05 00:30:39;;;;;;;10.57;2.40;;;;;;;5.16;71.96;100068.25;5033817;28;20033;-64
2022/01/05 00:33:06;;;;;;;15.88;2.58;;;;;;;5.08;71.70;100066.31;5033809;28;20037;-65
2022/01/05 00:35:31;;;;;;;9.30;2.40;;;;;;;5.05;72.78;100068.88;5033779;28;20526;-65
2022/01/05 00:38:00;;;;;;;10.60;2.10;;;;;;;5.01;73.01;100070.53;5033968;28;20113;-65
2022/01/05 00:40:25;;;;;;;14.35;3.15;;;;;;;4.97;72.17;100071.34;5033596;28;20021;-65
2022/01/05 00:42:51;;;;;;;9.70;2.30;;;;;;;4.94;72.03;100069.53;5033707;28;20022;-68
2022/01/05 00:45:16;;;;;;;11.85;2.70;;;;;;;4.93;71.61;100080.00;5033203;28;20029;-64
2022/01/05 00:47:42;;;;;;;6.38;1.88;;;;;;;4.95;72.16;100080.88;5033750;28;20074;-65
2022/01/05 00:50:07;;;;;;;10.45;2.22;;;;;;;4.93;71.97;100093.06;5033486;28;20025;-65
2022/01/05 00:52:33;;;;;;;10.38;2.50;;;;;;;4.92;73.39;100100.03;5033570;28;20032;-65
2022/01/05 00:54:58;;;;;;;10.90;2.40;;;;;;;4.83;71.83;100096.31;5033246;28;20045;-64
2022/01/05 00:57:27;;;;;;;11.02;2.38;;;;;;;4.81;73.37;100103.28;5033343;28;20553;-65
2022/01/05 00:59:52;;;;;;;9.98;2.50;;;;;;;4.80;71.74;100105.03;5033436;28;20030;-69
2022/01/05 01:02:18;;;;;;;8.90;2.25;;;;;;;4.78;71.79;100110.19;5015658;28;20029;-64
2022/01/05 01:04:43;;;;;;;10.63;2.33;;;;;;;4.75;72.53;100107.53;5033346;28;20110;-65
2022/01/05 01:07:09;;;;;;;13.30;2.67;;;;;;;4.62;72.30;100102.84;5033343;28;20040;-65
2022/01/05 01:09:34;;;;;;;7.97;2.38;;;;;;;4.63;73.83;100109.00;5032725;28;20489;-65
2022/01/05 01:12:00;;;;;;;11.35;2.33;;;;;;;4.57;72.40;100101.88;5033106;28;20117;-65
2022/01/05 01:14:25;;;;;;;7.50;2.22;;;;;;;4.53;72.80;100111.38;5033231;28;20502;-64
2022/01/05 01:16:50;;;;;;;12.75;2.40;;;;;;;4.50;73.52;100111.31;5033111;28;20367;-65
2022/01/05 01:19:16;;;;;;;7.05;2.22;;;;;;;4.51;72.76;100123.56;5033137;28;20078;-65
2022/01/05 01:21:41;;;;;;;10.07;2.47;;;;;;;4.46;73.75;100112.09;5033128;28;20041;-65
2022/01/05 01:24:07;;;;;;;14.27;2.60;;;;;;;4.43;72.82;100113.75;5032981;28;20094;-65
2022/01/05 01:26:33;;;;;;;10.93;2.50;;;;;;;4.41;72.34;100121.56;5032912;28;20018;-65
2022/01/05 01:29:00;;;;;;;11.45;2.45;;;;;;;4.36;72.80;100120.56;5033131;28;20037;-64
2022/01/05 01:31:26;;;;;;;12.73;2.47;;;;;;;4.36;74.51;100122.28;5032807;28;20398;-64
2022/01/05 01:33:52;;;;;;;11.10;2.28;;;;;;;4.37;73.39;100121.44;5032949;28;20061;-65
2022/01/05 01:36:18;;;;;;;10.85;2.47;;;;;;;4.37;73.16;100127.59;5032969;28;20061;-65
2022/01/05 01:38:44;;;;;;;13.90;3.20;;;;;;;4.32;72.38;100123.06;5032995;28;20433;-64
2022/01/05 01:41:10;;;;;;;14.18;2.60;;;;;;;4.24;73.85;100115.94;5032926;28;20471;-65
2022/01/05 01:43:36;;;;;;;13.40;2.60;;;;;;;4.20;73.06;100110.59;5032948;28;20026;-64
2022/01/05 01:46:05;;;;;;;11.80;2.47;;;;;;;4.13;73.81;100117.41;5032828;28;20083;-65
2022/01/05 01:48:31;;;;;;;9.93;2.85;;;;;;;4.13;74.52;100117.41;5032887;28;20018;-64
2022/01/05 01:50:56;;;;;;;14.65;2.72;;;;;;;4.12;74.41;100114.75;5032786;28;20124;-64
2022/01/05 01:53:26;;;;;;;10.30;2.53;;;;;;;4.15;75.52;100120.03;5032775;28;20113;-64
2022/01/05 01:55:54;;;;;;;7.38;2.42;;;;;;;4.06;73.20;100118.06;5032623;28;20049;-64
2022/01/05 01:58:24;;;;;;;10.10;2.80;;;;;;;4.08;74.88;100125.97;5032751;28;20038;-64
2022/01/05 02:00:49;;;;;;;11.88;2.40;;;;;;;4.12;73.60;100128.69;5032854;28;20030;-65
2022/01/05 02:03:15;;;;;;;10.55;2.50;;;;;;;4.15;72.81;100136.59;5032687;28;20075;-64
2022/01/05 02:05:41;;;;;;;10.88;2.83;;;;;;;4.06;72.69;100117.19;5014961;28;20360;-65
2022/01/05 02:08:07;;;;;;;10.73;2.35;;;;;;;4.03;74.11;100124.97;5032626;28;20509;-64
2022/01/05 02:10:32;;;;;;;6.93;2.38;;;;;;;4.00;72.76;100129.28;5032669;28;20029;-64
2022/01/05 02:12:58;;;;;;;11.90;2.75;;;;;;;3.88;73.13;100128.94;5032462;28;20025;-64
2022/01/05 02:15:24;;;;;;;9.45;2.67;;;;;;;3.83;73.25;100127.06;5032355;28;20497;-64
2022/01/05 02:20:47;;;;;;;14.45;2.42;;;;;;;3.81;74.30;100119.16;5002643;28;20494;-64
2022/01/05 02:23:16;;;;;;;16.08;2.63;;;;;;;3.80;72.34;100130.47;5036206;28;20033;-65
2022/01/05 02:25:41;;;;;;;9.45;2.60;;;;;;;3.79;72.53;100127.84;5036242;28;20052;-64
2022/01/05 02:28:07;;;;;;;9.48;2.70;;;;;;;3.76;72.79;100126.88;5036160;28;20108;-64
2022/01/05 02:30:32;;;;;;;6.90;2.20;;;;;;;3.78;73.81;100124.34;5036150;28;20056;-64
2022/01/05 02:32:58;;;;;;;13.27;2.45;;;;;;;3.72;73.72;100129.38;5036170;28;20025;-63
2022/01/05 02:35:24;;;;;;;9.07;2.50;;;;;;;3.63;74.02;100116.97;5036236;28;20024;-64
2022/01/05 02:37:53;;;;;;;9.40;2.33;;;;;;;3.68;72.39;100135.38;5035969;28;20493;-64
2022/01/05 02:40:21;;;;;;;11.90;2.63;;;;;;;3.65;72.44;100136.19;5035885;28;20084;-64
2022/01/05 02:42:47;;;;;;;11.80;2.60;;;;;;;3.62;73.33;100145.66;5036107;28;20052;-64
2022/01/05 02:45:14;;;;;;;10.05;2.58;;;;;;;3.57;73.80;100144.66;5035936;28;20171;-64
2022/01/05 02:47:41;;;;;;;9.32;2.33;;;;;;;3.58;73.37;100139.47;5035750;28;20041;-64
2022/01/05 02:50:10;;;;;;;9.35;2.70;;;;;;;3.53;74.07;100133.25;5035750;28;20057;-65
2022/01/05 02:52:37;;;;;;;14.85;3.13;;;;;;;3.58;73.55;100142.09;5035696;28;20029;-66
2022/01/05 02:55:04;;;;;;;10.93;2.53;;;;;;;3.54;73.45;100152.41;5035605;28;20513;-65
2022/01/05 02:57:30;;;;;;;9.40;2.22;;;;;;;3.45;72.62;100166.09;5035733;28;20064;-64
2022/01/05 02:59:56;;;;;;;14.05;2.53;;;;;;;3.42;73.44;100159.03;5035628;28;20061;-64
2022/01/05 03:02:22;;;;;;;13.43;2.45;;;;;;;3.38;73.55;100148.47;5035572;28;20033;-65
2022/01/05 03:04:47;;;;;;;12.18;2.70;;;;;;;3.34;73.56;100157.97;5035652;28;20033;-65
2022/01/05 03:07:14;;;;;;;7.30;2.15;;;;;;;3.28;74.38;100159.50;5035553;28;20060;-65
2022/01/05 03:09:40;;;;;;;9.23;2.40;;;;;;;3.25;73.44;100161.19;5035424;28;20390;-65
2022/01/05 03:12:06;;;;;;;14.98;2.40;;;;;;;3.22;73.93;100155.00;5035446;28;20022;-64
2022/01/05 03:14:31;;;;;;;12.55;2.40;;;;;;;3.20;72.92;100170.59;5035465;28;20489;-65
2022/01/05 03:16:57;;;;;;;9.80;2.45;;;;;;;3.18;73.11;100181.84;5035255;28;20065;-65
2022/01/05 03:19:22;;;;;;;10.00;2.47;;;;;;;3.15;74.56;100182.63;5035347;28;20033;-64
2022/01/05 03:21:48;;;;;;;10.07;2.40;;;;;;;3.13;74.74;100188.66;5035281;28;20029;-65
2022/01/05 03:24:13;;;;;;;11.90;2.40;;;;;;;3.11;75.08;100191.22;5035065;28;20029;-65
2022/01/05 03:26:39;;;;;;;6.88;2.50;;;;;;;3.10;73.49;100191.19;5035191;28;20026;-65
2022/01/05 03:29:05;;;;;;;10.38;2.38;;;;;;;3.06;73.43;100194.53;5035157;28;20532;-65
2022/01/05 03:31:36;;;;;;;13.05;2.50;;;;;;;3.03;74.64;100197.94;5034356;28;20036;-64
2022/01/05 03:34:04;;;;;;;7.63;2.30;;;;;;;3.03;75.41;100202.25;5017322;28;20025;-64
2022/01/05 03:36:29;;;;;;;11.13;2.72;;;;;;;2.99;74.98;100206.50;5035044;28;20116;-64
2022/01/05 03:38:55;;;;;;;8.65;2.40;;;;;;;3.00;74.57;100200.47;5034729;28;20083;-65
2022/01/05 03:41:21;;;;;;;6.78;2.08;;;;;;;2.98;74.49;100212.56;5034900;28;20035;-64
2022/01/05 03:43:47;;;;;;;9.85;2.22;;;;;;;2.92;75.18;100205.44;5034882;28;20079;-64
2022/01/05 03:46:13;;;;;;;10.85;2.58;;;;;;;2.94;74.60;100210.69;5034758;28;20029;-64
2022/01/05 03:48:38;;;;;;;8.98;2.08;;;;;;;2.95;75.44;100215.06;5034773;28;20052;-64
2022/01/05 03:51:04;;;;;;;11.75;2.60;;;;;;;2.95;74.91;100213.34;5034624;28;20049;-65
2022/01/05 03:53:29;;;;;;;7.88;2.58;;;;;;;2.92;75.04;100200.22;5034523;28;20022;-65
2022/01/05 03:55:54;;;;;;;11.88;2.40;;;;;;;2.92;75.53;100202.84;5034376;28;20045;-65
2022/01/05 03:58:20;;;;;;;13.55;2.67;;;;;;;2.97;75.54;100203.84;5034811;28;20391;-65
2022/01/05 04:00:49;;;;;;;16.42;2.92;;;;;;;2.92;75.23;100201.94;5034484;28;20390;-65
2022/01/05 04:03:17;;;;;;;16.98;2.65;;;;;;;2.89;75.11;100217.50;5034463;28;20049;-65
2022/01/05 04:05:43;;;;;;;12.88;2.72;;;;;;;2.86;75.03;100210.44;5034564;28;20145;-65
2022/01/05 04:08:08;;;;;;;10.55;1.98;;;;;;;2.87;74.93;100211.31;5034432;28;20049;-65
2022/01/05 04:10:34;;;;;;;9.98;2.20;;;;;;;2.84;75.58;100208.66;5034120;28;20463;-65
2022/01/05 04:13:00;;;;;;;11.20;2.70;;;;;;;2.89;75.89;100213.16;5034246;28;20538;-65
2022/01/05 04:15:27;;;;;;;16.00;2.85;;;;;;;2.89;75.97;100213.16;5034497;28;20029;-65
2022/01/05 04:17:53;;;;;;;12.40;2.63;;;;;;;2.91;76.28;100218.41;5034091;28;20041;-65
2022/01/05 04:20:19;;;;;;;17.40;3.03;;;;;;;2.93;74.83;100220.25;5034125;28;20033;-65
2022/01/05 04:22:46;;;;;;;12.00;2.70;;;;;;;2.86;75.52;100213.06;5034077;28;20056;-65
2022/01/05 04:25:12;;;;;;;14.18;2.65;;;;;;;2.92;75.19;100225.44;5034034;28;20026;-65
2022/01/05 04:27:37;;;;;;;11.35;2.50;;;;;;;2.86;74.88;100225.22;5034068;28;20033;-64
2022/01/05 04:30:06;;;;;;;13.55;2.55;;;;;;;2.86;74.84;100225.22;5033884;28;20025;-64
2022/01/05 04:32:31;;;;;;;12.23;2.75;;;;;;;2.82;75.02;100228.56;5033971;28;20029;-64
2022/01/05 04:34:57;;;;;;;11.77;2.42;;;;;;;2.83;75.44;100226.03;5033896;28;20032;-64
2022/01/05 04:37:23;;;;;;;10.02;2.30;;;;;;;2.80;75.20;100228.53;5033773;28;20053;-65
2022/01/05 04:39:49;;;;;;;12.70;2.65;;;;;;;2.76;75.74;100232.75;5033556;28;20030;-65
2022/01/05 04:42:15;;;;;;;10.80;2.55;;;;;;;2.78;74.87;100245.84;5033796;28;20018;-65
2022/01/05 04:44:40;;;;;;;14.90;2.60;;;;;;;2.76;74.95;100251.03;5033009;28;20036;-64
2022/01/05 04:47:08;;;;;;;13.93;2.58;;;;;;;2.70;75.57;100239.53;5033624;28;20439;-65
2022/01/05 04:49:33;;;;;;;11.75;2.47;;;;;;;2.77;74.99;100246.69;5033598;28;20116;-64
2022/01/05 04:51:59;;;;;;;12.70;2.53;;;;;;;2.74;75.80;100242.28;5033531;28;20510;-64
2022/01/05 04:54:25;;;;;;;11.32;2.83;;;;;;;2.78;75.74;100243.22;5033328;28;20022;-65
2022/01/05 04:56:51;;;;;;;15.68;3.00;;;;;;;2.76;76.22;100244.94;5033480;28;20043;-65
2022/01/05 04:59:16;;;;;;;10.18;2.60;;;;;;;2.77;75.59;100254.50;5015687;28;20033;-66
2022/01/05 05:01:42;;;;;;;11.73;2.67;;;;;;;2.72;76.31;100235.22;5033287;28;20060;-65
2022/01/05 05:04:07;;;;;;;11.32;2.42;;;;;;;2.84;76.30;100245.19;5033367;28;20022;-64
2022/01/05 05:06:33;;;;;;;12.95;2.47;;;;;;;2.84;76.08;100251.28;5015567;28;20025;-64
2022/01/05 05:08:58;;;;;;;11.35;2.58;;;;;;;2.89;76.58;100247.09;5033302;28;20036;-65
2022/01/05 05:11:23;;;;;;;12.43;2.40;;;;;;;2.96;76.57;100263.84;5033013;28;20113;-65
2022/01/05 05:13:49;;;;;;;10.52;2.50;;;;;;;3.01;76.66;100263.13;5033269;28;20471;-65
2022/01/05 05:16:14;;;;;;;18.10;3.00;;;;;;;3.07;75.85;100267.66;5033294;28;20116;-65
2022/01/05 05:18:40;;;;;;;10.65;2.60;;;;;;;3.07;76.61;100258.94;5032978;28;20080;-64
2022/01/05 05:21:05;;;;;;;15.00;3.22;;;;;;;3.07;76.84;100256.31;5033086;28;20021;-64
2022/01/05 05:23:31;;;;;;;13.07;2.67;;;;;;;3.15;76.68;100260.06;5033197;28;20025;-65
2022/01/05 05:25:56;;;;;;;11.75;2.30;;;;;;;3.16;76.64;100249.66;5032770;28;20028;-65
2022/01/05 05:28:22;;;;;;;11.95;2.60;;;;;;;3.17;76.70;100259.28;5032786;28;20017;-65
2022/01/05 05:30:47;;;;;;;14.25;2.38;;;;;;;3.20;76.42;100256.75;5032969;28;20592;-65
2022/01/05 05:33:12;;;;;;;12.10;2.97;;;;;;;3.23;77.26;100245.53;5032868;28;20029;-65
2022/01/05 05:35:41;;;;;;;16.13;2.95;;;;;;;3.23;76.87;100242.91;5033107;28;20102;-65
2022/01/05 05:38:07;;;;;;;16.17;2.97;;;;;;;3.23;76.97;100248.13;5032815;28;20032;-65
2022/01/05 05:40:32;;;;;;;16.50;3.20;;;;;;;3.16;77.75;100240.94;5033091;28;20038;-65
2022/01/05 05:42:58;;;;;;;17.20;3.00;;;;;;;3.19;78.11;100252.38;5032715;28;20022;-65
2022/01/05 05:45:23;;;;;;;15.75;2.88;;;;;;;3.20;77.24;100254.13;5033080;28;20052;-64
2022/01/05 05:47:49;;;;;;;19.48;3.92;;;;;;;3.20;77.21;100261.97;5032778;28;20033;-65
2022/01/05 05:50:14;;;;;;;10.90;2.92;;;;;;;3.22;77.59;100262.03;5032665;28;20033;-65
2022/01/05 05:52:40;;;;;;;17.80;3.05;;;;;;;3.22;76.92;100262.03;5032818;28;20022;-65
2022/01/05 05:55:06;;;;;;;17.40;2.60;;;;;;;3.25;77.86;100273.47;5033875;28;20049;-65
2022/01/05 05:57:31;;;;;;;10.02;2.65;;;;;;;3.24;77.28;100266.44;5018902;28;20029;-65
2022/01/05 05:59:56;;;;;;;12.20;2.60;;;;;;;3.27;76.81;100270.88;5019040;28;20022;-65
2022/01/05 06:02:22;;;;;;;10.52;2.85;;;;;;;3.22;77.88;100270.75;5036678;28;20030;-65
2022/01/05 06:04:47;;;;;;;12.23;3.17;;;;;;;3.22;77.43;100275.97;5036623;28;20463;-65
2022/01/05 06:07:13;;;;;;;13.27;3.30;;;;;;;3.19;77.77;100282.81;5036586;28;20029;-64
2022/01/05 06:09:38;;;;;;;14.00;2.97;;;;;;;3.16;78.08;100283.59;5036506;28;20044;-65
2022/01/05 06:12:07;;;;;;;13.52;2.85;;;;;;;3.15;77.63;100275.72;5036480;28;20068;-65
2022/01/05 06:14:33;;;;;;;11.65;3.08;;;;;;;3.11;78.18;100274.75;5036198;28;20521;-65
2022/01/05 06:16:58;;;;;;;12.32;2.83;;;;;;;3.13;78.14;100280.03;5036369;28;20108;-65
2022/01/05 06:19:23;;;;;;;7.85;2.70;;;;;;;3.08;77.99;100282.47;5036331;28;20136;-66
2022/01/05 06:21:58;;;;;;;10.73;2.63;;;;;;;3.11;78.08;100281.69;5036376;28;20064;-65
2022/01/05 06:24:24;;;;;;;15.13;2.95;;;;;;;3.13;78.03;100274.81;5036294;28;20033;-67
2022/01/05 06:26:52;;;;;;;14.23;3.30;;;;;;;3.10;78.30;100286.03;5036131;28;20393;-65
2022/01/05 06:29:18;;;;;;;15.18;2.80;;;;;;;3.02;78.21;100287.50;5035808;28;20030;-65
2022/01/05 06:31:43;;;;;;;17.17;3.10;;;;;;;3.00;78.17;100284.84;5036009;28;20109;-65
2022/01/05 06:34:08;;;;;;;15.02;3.40;;;;;;;2.89;79.01;100282.72;5036154;28;20084;-65
2022/01/05 06:36:34;;;;;;;12.15;2.75;;;;;;;2.89;79.09;100283.63;5035862;28;20029;-64
2022/01/05 06:38:59;;;;;;;15.40;2.80;;;;;;;2.96;79.20;100305.59;5035985;28;20025;-65
2022/01/05 06:41:25;;;;;;;10.77;2.60;;;;;;;2.96;79.10;100313.41;5036026;28;20029;-65
2022/01/05 06:43:50;;;;;;;18.15;2.92;;;;;;;2.94;78.86;100310.75;5035687;28;20039;-65
2022/01/05 06:46:16;;;;;;;13.40;2.95;;;;;;;2.88;79.45;100305.34;5035798;28;20192;-65
2022/01/05 06:48:41;;;;;;;16.08;3.38;;;;;;;2.92;79.49;100309.81;5035727;28;20386;-65
2022/01/05 06:51:07;;;;;;;10.25;3.00;;;;;;;2.88;79.29;100305.34;5035679;28;20026;-65
2022/01/05 06:53:32;;;;;;;13.90;3.40;;;;;;;2.86;79.78;100313.94;5035821;28;20108;-65
2022/01/05 06:55:57;;;;;;;11.80;2.80;;;;;;;2.83;79.65;100306.03;5035556;28;20037;-66
2022/01/05 06:58:32;;;;;;;12.55;3.25;;;;;;;2.84;80.34;100316.50;5035574;28;20029;-65
2022/01/05 07:00:58;;;;;;;9.63;2.88;;;;;;;2.86;80.36;100320.03;5035506;28;20056;-66
2022/01/05 07:03:23;;;;;;;16.10;3.10;;;;;;;2.87;80.54;100326.13;5035473;28;20029;-64
2022/01/05 07:05:49;;;;;;;12.32;2.78;;;;;;;2.89;79.89;100330.59;5035272;28;20424;-65
2022/01/05 07:08:14;;;;;;;10.73;3.03;;;;;;;2.87;80.34;100332.28;5034687;28;20113;-65
2022/01/05 07:10:40;;;;;;;13.15;3.28;;;;;;;2.84;80.15;100329.56;5035285;28;20028;-65
2022/01/05 07:13:05;;;;;;;13.32;3.13;;;;;;;2.87;80.33;100334.88;5035234;28;20064;-65
2022/01/05 07:15:31;;;;;;;16.45;3.20;;;;;;;2.90;80.36;100332.34;5035174;28;20036;-64
2022/01/05 07:17:56;;;;;;;11.70;3.10;;;;;;;2.90;80.26;100332.34;5035296;28;20061;-65
2022/01/05 07:20:22;;;;;;;16.52;3.55;;;;;;;2.87;80.63;100326.13;5017544;28;20029;-65
2022/01/05 07:22:52;;;;;;;16.23;3.03;;;;;;;2.88;80.83;100331.44;5035214;28;20076;-65
2022/01/05 07:25:18;;;;;;;12.02;3.35;;;;;;;2.92;80.36;100340.25;5035191;28;20024;-65
2022/01/05 07:27:43;;;;;;;15.43;3.05;;;;;;;2.92;80.74;100350.69;5034980;28;20026;-65
2022/01/05 07:30:09;;;;;;;19.77;3.42;;;;;;;2.92;80.40;100342.84;5034984;28;20040;-64
2022/01/05 07:32:36;;;;;;;12.80;3.30;;;;;;;2.91;80.77;100348.88;5034894;28;20022;-64
2022/01/05 07:35:03;;;;;;;13.38;3.42;;;;;;;2.96;80.46;100358.66;5035064;28;20022;-65
2022/01/05 07:37:28;;;;;;;13.05;3.45;;;;;;;2.97;80.77;100356.94;5034995;28;20368;-65
2022/01/05 07:39:54;;;;;;;15.10;3.50;;;;;;;3.03;80.76;100361.47;5017003;28;20041;-64
2022/01/05 07:42:20;;;;;;;12.95;3.10;;;;;;;2.98;81.03;100359.59;5034857;28;20025;-65
2022/01/05 07:44:45;;;;;;;17.00;3.35;;;;;;;3.01;81.33;100358.81;5034469;28;20064;-65
2022/01/05 07:47:11;;;;;;;10.55;2.75;;;;;;;3.03;81.06;100371.91;5034173;28;20049;-65
2022/01/05 07:49:37;;;;;;;12.02;3.03;;;;;;;3.08;80.91;100371.22;5034144;28;20079;-65
2022/01/05 07:52:05;;;;;;;16.10;2.97;;;;;;;3.13;80.88;100371.41;5034027;28;20399;-66
2022/01/05 07:54:32;;;;;;;15.57;3.30;;;;;;;3.14;81.36;100370.56;5033889;28;20430;-64
2022/01/05 07:56:58;;;;;;;19.33;3.53;;;;;;;3.20;81.36;100373.34;5034007;28;20049;-64
2022/01/05 07:59:24;;;;;;;13.85;2.70;;;;;;;3.21;81.49;100373.41;5033746;28;20068;-65
2022/01/05 08:01:50;;;;;;;11.60;2.83;;;;;;;3.29;81.34;100381.47;5034250;28;20025;-64
2022/01/05 08:04:16;;;;;;;11.15;3.38;;;;;;;3.34;81.14;100384.22;5033976;28;20030;-64
2022/01/05 08:06:42;;;;;;;12.13;3.15;;;;;;;3.42;81.27;100395.81;5033951;28;20121;-64
2022/01/05 08:09:07;;;;;;;11.10;3.05;;;;;;;3.43;80.37;100398.50;5033843;28;20021;-64
2022/01/05 08:11:33;;;;;;;17.50;3.67;;;;;;;3.51;81.12;100402.25;5033725;28;20377;-64
2022/01/05 08:13:58;;;;;;;13.27;3.22;;;;;;;3.58;80.71;100407.66;5033642;28;20032;-64
2022/01/05 08:16:24;;;;;;;15.02;3.28;;;;;;;3.60;81.17;100413.78;5033613;28;20017;-64
2022/01/05 08:18:49;;;;;;;9.57;2.75;;;;;;;3.63;80.52;100406.06;5033610;28;20108;-64
2022/01/05 08:21:17;;;;;;;17.00;3.10;;;;;;;3.70;80.61;100405.44;5033874;28;20068;-64
2022/01/05 08:23:42;;;;;;;17.52;3.00;;;;;;;3.76;80.59;100418.66;5033668;28;20060;-64
2022/01/05 08:26:08;;;;;;;14.15;3.08;;;;;;;3.81;80.16;100417.06;5033619;28;20025;-64
2022/01/05 08:28:34;;;;;;;9.25;2.47;;;;;;;3.86;80.37;100412.91;5033512;28;20025;-64
2022/01/05 08:31:00;;;;;;;13.88;3.00;;;;;;;3.94;79.37;100418.34;5033477;28;20034;-64
2022/01/05 08:33:27;;;;;;;10.98;2.83;;;;;;;3.99;79.19;100409.81;5033368;28;20470;-64
2022/01/05 08:35:52;;;;;;;12.13;2.72;;;;;;;4.04;79.54;100420.41;5033295;28;20108;-63
2022/01/05 08:38:18;;;;;;;11.65;2.45;;;;;;;4.01;79.67;100400.28;5033241;28;20112;-64
2022/01/05 08:40:44;;;;;;;15.15;2.83;;;;;;;4.08;79.57;100405.72;5033364;28;20018;-64
2022/01/05 08:43:12;;;;;;;14.73;2.70;;;;;;;4.13;78.57;100414.56;5033202;28;20040;-65
2022/01/05 08:45:37;;;;;;;16.00;3.22;;;;;;;4.16;78.42;100425.13;5033130;28;20060;-64
2022/01/05 08:48:04;;;;;;;13.07;3.05;;;;;;;4.21;79.23;100424.41;5033093;28;20060;-64
2022/01/05 08:50:32;;;;;;;8.32;2.55;;;;;;;4.34;78.27;100422.16;5033118;28;20047;-64
2022/01/05 08:52:58;;;;;;;16.15;2.83;;;;;;;4.45;78.05;100416.41;5033112;28;20037;-64
2022/01/05 08:55:28;;;;;;;13.38;3.10;;;;;;;4.49;77.38;100407.75;5032993;28;20110;-64
2022/01/05 08:57:54;;;;;;;15.75;2.85;;;;;;;4.49;77.90;100412.13;5033050;28;20025;-64
2022/01/05 09:00:19;;;;;;;18.35;2.65;;;;;;;4.49;77.98;100415.63;5032782;28;20040;-64
2022/01/05 09:02:46;;;;;;;17.02;2.70;;;;;;;4.65;77.29;100413.44;5032955;28;20018;-64
2022/01/05 09:05:11;;;;;;;10.95;2.78;;;;;;;4.92;76.54;100422.03;5032815;28;20017;-63
2022/01/05 09:07:37;;;;;;;18.67;3.05;;;;;;;5.17;76.46;100422.69;5032966;28;20041;-63
2022/01/05 09:10:04;;;;;;;9.43;2.65;;;;;;;5.40;75.21;100418.03;5032793;28;20483;-63
2022/01/05 09:12:30;;;;;;;12.18;2.60;;;;;;;5.49;74.66;100420.88;5032730;28;20080;-63
2022/01/05 09:14:56;;;;;;;11.05;2.53;;;;;;;5.43;75.10;100439.94;5032615;28;20107;-63
2022/01/05 09:17:28;;;;;;;15.35;3.00;;;;;;;5.34;76.09;100433.59;5032632;28;20084;-64
2022/01/05 09:19:54;;;;;;;10.20;2.92;;;;;;;5.29;76.69;100443.94;5032712;28;20055;-64
2022/01/05 09:22:20;;;;;;;11.65;2.63;;;;;;;5.18;76.64;100432.28;5032675;28;20025;-64
2022/01/05 09:24:45;;;;;;;13.60;2.75;;;;;;;5.10;77.35;100441.72;5032647;28;20394;-64
2022/01/05 09:27:11;;;;;;;17.17;3.08;;;;;;;5.05;77.19;100457.28;5032637;28;20040;-66
2022/01/05 09:29:37;;;;;;;12.98;2.55;;;;;;;5.02;78.05;100462.44;5032046;28;20036;-66
2022/01/05 09:32:06;;;;;;;12.43;2.88;;;;;;;4.97;78.06;100448.34;5032562;28;20049;-66
2022/01/05 09:34:32;;;;;;;13.57;3.75;;;;;;;4.95;78.84;100461.38;5032544;28;20425;-66
2022/01/05 09:37:03;;;;;;;10.57;2.30;;;;;;;4.97;78.51;100461.44;5032304;28;20421;-65
2022/01/05 09:42:14;;;;;;;12.93;2.70;;;;;;;4.96;77.44;100468.38;5032390;28;20625;-66
2022/01/05 09:44:45;;;;;;;13.88;2.70;;;;;;;4.96;78.20;100478.88;5032490;28;20040;-66
2022/01/05 09:47:10;;;;;;;13.68;2.60;;;;;;;4.95;78.14;100476.22;5032340;28;20033;-65
2022/01/05 09:49:57;;;;;;;17.42;3.50;;;;;;;5.00;78.35;100479.84;5032369;28;20044;-65
2022/01/05 09:52:24;;;;;;;15.82;3.05;;;;;;;4.99;78.43;100492.03;5032318;28;20037;-65
2022/01/05 09:54:49;;;;;;;11.50;2.83;;;;;;;4.97;78.31;100488.50;5031935;28;20407;-66
2022/01/05 09:57:16;;;;;;;14.07;2.67;;;;;;;4.96;78.78;100486.72;5032470;28;20021;-66
2022/01/05 09:59:43;;;;;;;13.27;2.80;;;;;;;5.02;78.27;100486.03;5032100;28;20034;-66
2022/01/05 10:02:09;;;;;;;10.48;2.58;;;;;;;4.99;78.48;100492.03;5032137;28;20026;-66
2022/01/05 10:04:36;;;;;;;11.25;2.58;;;;;;;4.98;78.67;100492.00;5031986;28;20494;-65
2022/01/05 10:07:10;;;;;;;14.05;2.65;;;;;;;5.00;79.03;100485.06;5032090;28;20509;-66
2022/01/05 10:09:44;;;;;;;14.85;2.88;;;;;;;5.02;78.83;100489.53;5031932;28;20025;-66
2022/01/05 10:12:11;;;;;;;15.30;3.13;;;;;;;5.03;78.58;100490.41;5031959;28;20041;-66
2022/01/05 10:14:41;;;;;;;17.30;2.75;;;;;;;5.05;79.04;100493.94;5031935;28;20037;-65
2022/01/05 10:17:08;;;;;;;20.15;3.15;;;;;;;5.07;78.70;100492.25;5031901;28;20029;-66
2022/01/05 10:19:34;;;;;;;17.58;2.47;;;;;;;5.09;79.24;100493.19;5032037;28;20030;-66
2022/01/05 10:22:01;;;;;;;14.20;2.70;;;;;;;5.10;79.66;100507.19;5031918;28;20108;-66
2022/01/05 10:24:44;;;;;;;14.65;3.28;;;;;;;5.14;79.13;100504.69;5032120;28;20064;-66
2022/01/05 10:27:23;;;;;;;13.05;3.08;;;;;;;5.32;79.95;100508.66;5032250;28;20022;-65
2022/01/05 10:30:04;;;;;;;13.25;2.90;;;;;;;5.47;78.84;100507.28;5031914;28;20029;-67
2022/01/05 10:32:32;;;;;;;13.10;2.47;;;;;;;5.59;78.32;100505.84;5031885;28;20030;-67
2022/01/05 10:35:07;;;;;;;11.90;2.40;;;;;;;5.58;77.85;100512.81;5031769;28;20025;-64
2022/01/05 10:37:34;;;;;;;14.52;2.78;;;;;;;5.61;77.34;100512.00;5014119;28;20021;-66
2022/01/05 10:40:07;;;;;;;19.33;3.00;;;;;;;5.61;77.06;100505.03;5014140;28;20034;-65
2022/01/05 10:42:33;;;;;;;14.27;2.78;;;;;;;5.61;77.39;100499.81;5033704;28;20052;-66
2022/01/05 10:44:59;;;;;;;15.65;2.75;;;;;;;5.72;76.19;100523.66;5035432;28;20470;-66
2022/01/05 10:47:29;;;;;;;14.80;2.75;;;;;;;5.90;77.43;100525.81;5035072;28;20021;-66
2022/01/05 10:49:54;;;;;;;17.38;3.00;;;;;;;6.06;75.92;100525.38;5017426;28;20116;-65
2022/01/05 10:52:34;;;;;;;13.15;2.95;;;;;;;6.20;75.67;100523.09;5035401;28;20018;-65
2022/01/05 10:55:38;;;;;;;14.73;3.03;;;;;;;6.36;76.27;100537.44;5034886;28;20044;-66
2022/01/05 10:58:12;;;;;;;13.35;2.97;;;;;;;6.50;74.46;100536.88;4935834;29;20059;-67
2022/01/05 11:00:50;;;;;;;14.15;3.00;;;;;;;6.63;73.75;100537.16;4935792;28;20035;-66
2022/01/05 11:03:19;;;;;;;17.88;2.92;;;;;;;6.71;73.75;100541.72;4935636;29;20038;-65
2022/01/05 11:05:59;;;;;;;18.90;3.70;;;;;;;6.77;74.63;100541.88;4936006;29;20525;-64
2022/01/05 11:08:24;;;;;;;13.20;2.92;;;;;;;6.85;73.41;100567.38;4935559;29;20036;-64
2022/01/05 11:10:49;;;;;;;14.02;2.92;;;;;;;6.79;72.42;100565.53;4935630;29;20094;-64
2022/01/05 11:13:15;;;;;;;18.27;2.85;;;;;;;6.77;72.82;100556.75;4919646;29;20031;-65
2022/01/05 11:15:41;;;;;;;13.90;2.53;;;;;;;6.70;73.11;100557.47;4935553;29;20036;-64
2022/01/05 11:18:12;;;;;;;16.88;3.40;;;;;;;6.62;73.61;100554.66;4935524;29;20043;-65
2022/01/05 11:20:55;;;;;;;10.25;2.35;;;;;;;6.53;73.84;100544.84;4936235;29;20032;-67
2022/01/05 11:23:23;;;;;;;18.98;3.40;;;;;;;6.37;74.03;100537.47;4926552;29;20497;-64
2022/01/05 11:25:50;;;;;;;11.23;2.70;;;;;;;6.46;73.94;100574.41;4935571;29;20405;-65
2022/01/05 11:28:19;;;;;;;15.98;3.40;;;;;;;6.48;74.78;100548.22;4954349;29;20469;-64
2022/01/05 11:30:46;;;;;;;14.20;2.97;;;;;;;6.49;73.58;100552.63;4954283;29;20032;-66